createdAt,value
2018-02-18T00:01:03.051Z,6.15
2018-02-18T00:03:31.700Z,7.70
2018-02-18T00:06:00.413Z,5.70
2018-02-18T00:08:29.815Z,5.65
2018-02-18T00:10:59.233Z,5.90
2018-02-18T00:13:27.676Z,5.85
2018-02-18T00:15:56.148Z,5.80
2018-02-18T00:18:24.788Z,6.07
2018-02-18T00:20:53.424Z,4.35
2018-02-18T00:23:22.074Z,4.40
2018-02-18T00:25:50.721Z,4.85
2018-02-18T00:28:19.379Z,6.53
2018-02-18T00:30:48.038Z,4.50
2018-02-18T00:33:16.668Z,4.50
2018-02-18T00:35:46.081Z,5.57
2018-02-18T00:38:14.397Z,4.75
2018-02-18T00:40:42.861Z,5.35
2018-02-18T00:43:11.488Z,4.70
2018-02-18T00:45:40.119Z,5.43
2018-02-18T00:48:08.758Z,6.03
2018-02-18T00:50:37.234Z,4.80
2018-02-18T00:53:06.056Z,5.78
2018-02-18T00:55:35.482Z,5.22
2018-02-18T00:58:04.141Z,4.15
2018-02-18T01:00:32.806Z,4.37
2018-02-18T01:03:01.440Z,3.53
2018-02-18T01:05:30.121Z,4.85
2018-02-18T01:07:58.755Z,5.32
2018-02-18T01:10:27.401Z,5.87
2018-02-18T01:12:56.060Z,6.18
2018-02-18T01:15:24.711Z,4.10
2018-02-18T01:17:53.373Z,4.25
2018-02-18T01:20:22.031Z,6.75
2018-02-18T01:22:50.672Z,4.93
2018-02-18T01:25:20.096Z,4.62
2018-02-18T01:27:48.733Z,5.75
2018-02-18T01:30:17.461Z,5.20
2018-02-18T01:32:46.173Z,6.28
2018-02-18T01:35:14.820Z,4.75
2018-02-18T01:37:44.244Z,5.20
2018-02-18T01:40:12.878Z,5.93
2018-02-18T01:42:41.554Z,5.28
2018-02-18T01:45:10.184Z,4.37
2018-02-18T01:47:39.584Z,5.50
2018-02-18T01:50:20.362Z,5.00
2018-02-18T01:52:49.859Z,4.87
2018-02-18T01:55:19.285Z,5.75
2018-02-18T01:57:47.918Z,5.22
2018-02-18T02:00:16.241Z,5.85
2018-02-18T02:02:44.916Z,4.82
2018-02-18T02:05:14.318Z,4.80
2018-02-18T02:07:42.981Z,5.40
2018-02-18T02:10:11.611Z,5.30
2018-02-18T02:12:40.244Z,4.82
2018-02-18T02:15:10.549Z,5.05
2018-02-18T02:17:39.943Z,5.12
2018-02-18T02:20:08.280Z,5.25
2018-02-18T02:22:37.061Z,4.95
2018-02-18T02:25:05.053Z,5.18
2018-02-18T02:27:33.706Z,5.35
2018-02-18T02:30:03.107Z,6.70
2018-02-18T02:32:32.532Z,5.72
2018-02-18T02:35:01.162Z,4.95
2018-02-18T02:37:29.611Z,5.50
2018-02-18T02:39:58.281Z,6.07
2018-02-18T02:42:26.958Z,4.93
2018-02-18T02:44:55.625Z,5.90
2018-02-18T02:47:25.037Z,5.78
2018-02-18T02:49:53.681Z,5.15
2018-02-18T02:52:22.339Z,5.72
2018-02-18T02:54:51.002Z,5.55
2018-02-18T02:57:19.659Z,5.53
2018-02-18T02:59:48.284Z,5.70
2018-02-18T03:02:16.919Z,4.75
2018-02-18T03:04:45.563Z,5.20
2018-02-18T03:07:14.185Z,5.28
2018-02-18T03:09:42.839Z,6.05
2018-02-18T03:12:12.254Z,7.10
2018-02-18T03:14:40.892Z,6.32
2018-02-18T03:17:09.557Z,5.18
2018-02-18T03:19:38.968Z,6.12
2018-02-18T03:22:08.392Z,5.20
2018-02-18T03:24:37.011Z,4.93
2018-02-18T03:27:05.660Z,5.45
2018-02-18T03:29:34.296Z,4.70
2018-02-18T03:32:02.962Z,5.72
2018-02-18T03:34:31.613Z,4.32
2018-02-18T03:37:00.266Z,5.22
2018-02-18T03:39:29.675Z,5.60
2018-02-18T03:41:59.079Z,6.50
2018-02-18T03:44:28.512Z,6.00
2018-02-18T03:46:57.145Z,6.07
2018-02-18T03:49:25.810Z,6.65
2018-02-18T03:51:54.460Z,5.80
2018-02-18T03:54:23.212Z,6.18
2018-02-18T03:56:52.650Z,7.40
2018-02-18T03:59:21.300Z,6.50
2018-02-18T04:01:50.531Z,6.78
2018-02-18T04:04:19.171Z,7.18
2018-02-18T04:06:47.814Z,7.80
2018-02-18T04:09:16.479Z,6.07
2018-02-18T04:11:45.112Z,6.55
2018-02-18T04:14:13.769Z,6.37
2018-02-18T04:16:42.420Z,7.12
2018-02-18T04:19:11.069Z,7.40
2018-02-18T04:21:39.706Z,6.37
2018-02-18T04:24:08.353Z,6.72
2018-02-18T04:26:37.772Z,6.35
2018-02-18T04:29:06.415Z,6.60
2018-02-18T04:31:35.073Z,7.62
2018-02-18T04:34:03.712Z,7.55
2018-02-18T04:36:33.149Z,7.30
2018-02-18T04:39:01.808Z,7.37
2018-02-18T04:41:31.219Z,8.15
2018-02-18T04:43:59.881Z,7.05
2018-02-18T04:46:29.289Z,9.20
2018-02-18T04:48:58.706Z,7.43
2018-02-18T04:51:27.372Z,6.87
2018-02-18T04:53:56.864Z,7.15
2018-02-18T04:56:25.502Z,7.05
2018-02-18T04:58:54.165Z,8.57
2018-02-18T05:01:22.802Z,7.90
2018-02-18T05:03:51.438Z,6.60
2018-02-18T05:06:20.087Z,7.65
2018-02-18T05:08:48.743Z,8.07
2018-02-18T05:11:17.408Z,5.82
2018-02-18T05:13:46.055Z,7.85
2018-02-18T05:16:15.483Z,7.55
2018-02-18T05:18:44.125Z,8.60
2018-02-18T05:21:12.772Z,7.72
2018-02-18T05:23:41.436Z,8.57
2018-02-18T05:26:10.093Z,6.97
2018-02-18T05:28:39.513Z,7.57
2018-02-18T05:31:08.166Z,8.85
2018-02-18T05:33:36.826Z,7.60
2018-02-18T05:36:05.472Z,7.47
2018-02-18T05:38:35.552Z,8.38
2018-02-18T05:41:04.210Z,7.28
2018-02-18T05:43:32.868Z,8.68
2018-02-18T05:46:01.524Z,8.35
2018-02-18T05:48:30.969Z,8.25
2018-02-18T05:50:59.777Z,8.10
2018-02-18T05:53:28.420Z,7.65
2018-02-18T05:55:57.084Z,7.50
2018-02-18T05:58:26.500Z,7.68
2018-02-18T06:00:55.177Z,8.77
2018-02-18T06:03:24.609Z,9.30
2018-02-18T06:05:53.338Z,8.82
2018-02-18T06:08:21.975Z,7.85
2018-02-18T06:10:50.632Z,8.60
2018-02-18T06:13:20.054Z,8.25
2018-02-18T06:15:48.751Z,8.68
2018-02-18T06:18:17.566Z,8.88
2018-02-18T06:20:46.925Z,7.47
2018-02-18T06:23:15.574Z,7.68
2018-02-18T06:25:44.215Z,7.22
2018-02-18T06:28:12.950Z,7.30
2018-02-18T06:30:41.700Z,8.48
2018-02-18T06:33:10.370Z,9.10
2018-02-18T06:35:38.999Z,6.03
2018-02-18T06:38:07.671Z,8.20
2018-02-18T06:40:36.322Z,8.93
2018-02-18T06:43:05.076Z,10.38
2018-02-18T06:45:34.501Z,7.53
2018-02-18T06:48:03.164Z,8.65
2018-02-18T06:50:32.596Z,7.20
2018-02-18T06:53:01.248Z,7.75
2018-02-18T06:55:30.689Z,7.50
2018-02-18T06:57:59.349Z,8.95
2018-02-18T07:00:28.032Z,8.77
2018-02-18T07:02:57.462Z,8.23
2018-02-18T07:05:26.098Z,7.62
2018-02-18T07:07:54.820Z,5.75
2018-02-18T07:10:23.456Z,8.25
2018-02-18T07:12:52.117Z,10.20
2018-02-18T07:15:20.769Z,8.38
2018-02-18T07:17:49.431Z,8.60
2018-02-18T07:20:18.850Z,7.70
2018-02-18T07:22:47.508Z,8.43
2018-02-18T07:25:16.955Z,8.55
2018-02-18T07:27:45.609Z,8.48
2018-02-18T07:30:15.025Z,9.18
2018-02-18T07:32:43.699Z,9.73
2018-02-18T07:35:12.084Z,8.87
2018-02-18T07:37:41.185Z,9.38
2018-02-18T07:40:09.840Z,7.72
2018-02-18T07:42:38.488Z,7.78
2018-02-18T07:45:08.025Z,8.30
2018-02-18T07:47:36.483Z,8.93
2018-02-18T07:50:04.552Z,8.40
2018-02-18T07:52:32.934Z,8.40
2018-02-18T07:55:02.102Z,10.40
2018-02-18T07:57:30.492Z,8.20
2018-02-18T07:59:58.860Z,9.27
2018-02-18T08:02:27.495Z,11.67
2018-02-18T08:04:58.989Z,11.37
2018-02-18T08:07:27.427Z,8.37
2018-02-18T08:09:55.983Z,10.17
2018-02-18T08:12:24.455Z,11.23
2018-02-18T08:14:52.839Z,9.90
2018-02-18T08:17:21.227Z,9.10
2018-02-18T08:19:49.633Z,9.07
2018-02-18T08:22:18.020Z,9.03
2018-02-18T08:24:46.408Z,8.50
2018-02-18T08:27:14.936Z,8.97
2018-02-18T08:29:43.379Z,10.10
2018-02-18T08:32:11.770Z,9.50
2018-02-18T08:34:40.147Z,10.50
2018-02-18T08:37:08.555Z,9.73
2018-02-18T08:39:36.950Z,11.17
2018-02-18T08:42:06.154Z,9.30
2018-02-18T08:44:34.572Z,10.73
2018-02-18T08:47:02.970Z,8.13
2018-02-18T08:49:31.346Z,10.70
2018-02-18T08:51:59.729Z,8.70
2018-02-18T08:54:28.107Z,9.97
2018-02-18T08:56:56.516Z,6.67
2018-02-18T08:59:25.701Z,7.00
2018-02-18T09:01:54.855Z,6.30
2018-02-18T09:04:23.230Z,7.37
2018-02-18T09:06:51.800Z,10.30
2018-02-18T09:09:20.193Z,8.70
2018-02-18T09:11:48.609Z,10.30
2018-02-18T09:14:16.985Z,5.53
2018-02-18T09:16:45.387Z,9.50
2018-02-18T09:19:14.528Z,9.47
2018-02-18T09:21:42.929Z,9.03
2018-02-18T09:24:11.302Z,11.50
2018-02-18T09:26:39.968Z,11.03
2018-02-18T09:29:08.341Z,9.10
2018-02-18T09:31:36.752Z,10.97
2018-02-18T09:34:05.160Z,11.30
2018-02-18T09:36:34.295Z,12.33
2018-02-18T09:39:02.772Z,12.50
2018-02-18T09:41:31.157Z,13.50
2018-02-18T09:43:59.521Z,11.50
2018-02-18T09:46:27.965Z,10.37
2018-02-18T09:48:57.096Z,9.77
2018-02-18T09:51:25.470Z,11.10
2018-02-18T09:53:53.852Z,8.30
2018-02-18T09:56:22.224Z,11.00
2018-02-18T09:58:50.611Z,13.30
2018-02-18T10:01:19.030Z,13.00
2018-02-18T10:03:47.399Z,12.93
2018-02-18T10:06:15.978Z,14.00
2018-02-18T10:08:44.354Z,10.33
2018-02-18T10:11:12.769Z,11.00
2018-02-18T10:13:41.144Z,10.20
2018-02-18T10:16:09.948Z,13.60
2018-02-18T10:18:39.114Z,11.63
2018-02-18T10:21:07.482Z,11.73
2018-02-18T10:23:35.873Z,12.00
2018-02-18T10:26:04.242Z,10.03
2018-02-18T10:28:32.608Z,8.50
2018-02-18T10:31:01.756Z,8.17
2018-02-18T10:33:30.926Z,13.60
2018-02-18T10:35:59.299Z,11.67
2018-02-18T10:38:27.673Z,12.97
2018-02-18T10:40:56.044Z,10.60
2018-02-18T10:43:24.441Z,10.87
2018-02-18T10:45:52.840Z,10.03
2018-02-18T10:48:21.992Z,12.00
2018-02-18T10:50:50.348Z,9.67
2018-02-18T10:53:18.725Z,13.20
2018-02-18T10:55:47.201Z,12.93
2018-02-18T10:58:15.573Z,10.90
2018-02-18T11:00:43.954Z,12.83
2018-02-18T11:03:13.215Z,13.40
2018-02-18T11:05:42.381Z,14.30
2018-02-18T11:08:10.965Z,10.10
2018-02-18T11:10:40.551Z,9.57
2018-02-18T11:13:09.063Z,11.33
2018-02-18T11:15:37.456Z,11.40
2018-02-18T11:18:05.852Z,15.23
2018-02-18T11:20:34.158Z,13.73
2018-02-18T11:23:02.539Z,12.77
2018-02-18T11:25:30.955Z,12.67
2018-02-18T11:27:59.374Z,11.80
2018-02-18T11:30:27.744Z,13.87
2018-02-18T11:32:56.897Z,13.40
2018-02-18T11:35:25.279Z,12.60
2018-02-18T11:37:53.687Z,11.60
2018-02-18T11:40:22.841Z,13.40
2018-02-18T11:42:51.247Z,11.97
2018-02-18T11:45:19.628Z,13.77
2018-02-18T11:47:48.014Z,12.83
2018-02-18T11:50:17.179Z,13.23
2018-02-18T11:52:45.550Z,15.10
2018-02-18T11:55:13.920Z,12.57
2018-02-18T11:57:42.373Z,11.97
2018-02-18T12:00:10.894Z,12.93
2018-02-18T12:02:39.299Z,12.63
2018-02-18T12:05:08.444Z,13.07
2018-02-18T12:07:36.828Z,11.80
2018-02-18T12:10:04.882Z,12.00
2018-02-18T12:12:33.280Z,12.73
2018-02-18T12:15:01.668Z,12.57
2018-02-18T12:17:30.059Z,15.87
2018-02-18T12:19:58.427Z,13.60
2018-02-18T12:22:26.861Z,15.20
2018-02-18T12:24:55.860Z,14.27
2018-02-18T12:27:25.137Z,12.40
2018-02-18T12:29:54.285Z,13.97
2018-02-18T12:32:22.477Z,12.40
2018-02-18T12:34:50.887Z,12.60
2018-02-18T12:37:20.041Z,11.27
2018-02-18T12:39:48.444Z,13.03
2018-02-18T12:42:16.821Z,14.70
2018-02-18T12:44:45.188Z,13.70
2018-02-18T12:47:13.572Z,12.73
2018-02-18T12:49:41.952Z,12.30
2018-02-18T12:52:10.343Z,11.97
2018-02-18T12:54:38.716Z,12.47
2018-02-18T12:57:07.281Z,14.00
2018-02-18T12:59:35.676Z,14.20
2018-02-18T13:02:04.106Z,11.53
2018-02-18T13:04:32.551Z,11.90
2018-02-18T13:07:01.690Z,10.87
2018-02-18T13:09:30.074Z,11.90
2018-02-18T13:11:58.456Z,13.77
2018-02-18T13:14:26.836Z,13.93
2018-02-18T13:16:55.225Z,12.67
2018-02-18T13:19:23.616Z,12.23
2018-02-18T13:21:52.792Z,15.27
2018-02-18T13:24:21.209Z,13.03
2018-02-18T13:26:50.345Z,13.47
2018-02-18T13:29:18.728Z,12.57
2018-02-18T13:31:47.122Z,13.60
2018-02-18T13:34:15.509Z,13.03
2018-02-18T13:36:43.886Z,12.10
2018-02-18T13:39:12.419Z,12.47
2018-02-18T13:41:41.570Z,10.77
2018-02-18T13:44:09.953Z,11.20
2018-02-18T13:46:38.354Z,10.50
2018-02-18T13:49:07.495Z,13.43
2018-02-18T13:51:35.865Z,10.70
2018-02-18T13:54:04.245Z,11.10
2018-02-18T13:56:32.627Z,8.60
2018-02-18T13:59:01.078Z,8.10
2018-02-18T14:01:30.216Z,7.73
2018-02-18T14:03:58.658Z,7.60
2018-02-18T14:06:27.161Z,8.10
2018-02-18T14:08:55.354Z,7.13
2018-02-18T14:11:23.748Z,7.47
2018-02-18T14:13:52.120Z,7.63
2018-02-18T14:16:20.492Z,7.30
2018-02-18T14:18:48.924Z,7.50
2018-02-18T14:21:18.052Z,8.10
2018-02-18T14:23:46.453Z,8.50
2018-02-18T14:26:14.844Z,7.23
2018-02-18T14:28:43.204Z,6.50
2018-02-18T14:31:11.579Z,7.10
2018-02-18T14:33:39.760Z,6.50
2018-02-18T14:36:08.144Z,6.13
2018-02-18T14:38:36.511Z,5.27
2018-02-18T14:41:04.878Z,5.40
2018-02-18T14:43:44.522Z,6.77
2018-02-18T14:46:24.141Z,6.90
2018-02-18T14:49:03.780Z,7.00
2018-02-18T14:51:43.388Z,4.10
2018-02-18T15:07:42.957Z,5.50
2018-02-18T15:10:11.362Z,5.50
2018-02-18T15:12:40.513Z,5.97
2018-02-18T15:15:08.884Z,5.90
2018-02-18T15:17:37.272Z,8.70
2018-02-18T15:20:05.673Z,8.43
2018-02-18T15:22:34.044Z,8.07
2018-02-18T15:25:02.456Z,8.40
2018-02-18T15:27:31.600Z,8.77
2018-02-18T15:29:59.992Z,8.50
2018-02-18T15:32:28.528Z,8.67
2018-02-18T15:34:56.913Z,7.80
2018-02-18T15:37:25.304Z,9.13
2018-02-18T15:39:53.678Z,10.10
2018-02-18T15:42:22.072Z,11.93
2018-02-18T15:44:50.469Z,10.40
2018-02-18T15:47:18.853Z,12.27
2018-02-18T15:49:47.262Z,11.30
2018-02-18T15:52:16.443Z,12.77
2018-02-18T15:54:44.988Z,12.10
2018-02-18T15:57:13.359Z,10.90
2018-02-18T15:59:41.750Z,12.27
2018-02-18T16:02:10.122Z,11.83
2018-02-18T16:04:38.500Z,11.83
2018-02-18T16:07:06.919Z,12.90
2018-02-18T16:09:35.292Z,12.67
2018-02-18T16:12:04.464Z,13.90
2018-02-18T16:14:32.857Z,13.20
2018-02-18T16:17:01.360Z,13.00
2018-02-18T16:19:30.528Z,13.87
2018-02-18T16:21:58.899Z,11.90
2018-02-18T16:24:27.278Z,12.30
2018-02-18T16:26:55.716Z,12.20
2018-02-18T16:29:24.091Z,11.90
2018-02-18T16:31:52.490Z,12.03
2018-02-18T16:34:20.878Z,11.50
2018-02-18T16:36:49.317Z,11.30
2018-02-18T16:39:18.463Z,13.30
2018-02-18T16:41:46.859Z,12.43
2018-02-18T16:44:15.278Z,12.30
2018-02-18T16:46:43.648Z,11.40
2018-02-18T16:49:12.833Z,12.60
2018-02-18T16:51:42.008Z,12.40
2018-02-18T16:54:10.393Z,11.90
2018-02-18T16:56:40.478Z,12.57
2018-02-18T16:59:08.850Z,11.97
2018-02-18T17:01:37.226Z,11.77
2018-02-18T17:04:05.621Z,11.47
2018-02-18T17:06:34.009Z,12.73
2018-02-18T17:09:02.484Z,11.90
2018-02-18T17:11:30.849Z,15.10
2018-02-18T17:13:59.216Z,13.30
2018-02-18T17:16:27.630Z,13.30
2018-02-18T17:18:56.010Z,13.70
2018-02-18T17:21:24.508Z,12.93
2018-02-18T17:23:52.643Z,12.00
2018-02-18T17:26:21.021Z,12.53
2018-02-18T17:28:49.456Z,12.50
2018-02-18T17:31:17.647Z,10.70
2018-02-18T17:33:46.064Z,12.00
2018-02-18T17:36:14.440Z,11.50
2018-02-18T17:38:42.920Z,11.83
2018-02-18T17:41:11.316Z,11.43
2018-02-18T17:43:39.702Z,13.47
2018-02-18T17:46:08.101Z,10.53
2018-02-18T17:48:37.238Z,10.57
2018-02-18T17:51:05.627Z,11.47
2018-02-18T17:53:34.712Z,11.87
2018-02-18T17:56:03.187Z,11.50
2018-02-18T17:58:31.702Z,12.20
2018-02-18T18:01:00.077Z,10.87
2018-02-18T18:03:28.444Z,11.93
2018-02-18T18:05:56.831Z,13.40
2018-02-18T18:08:25.210Z,11.73
2018-02-18T18:10:53.627Z,12.33
2018-02-18T18:13:22.760Z,9.83
2018-02-18T18:15:51.137Z,11.63
2018-02-18T18:18:19.527Z,12.50
2018-02-18T18:20:47.893Z,13.07
2018-02-18T18:23:16.332Z,12.23
2018-02-18T18:25:46.692Z,11.53
2018-02-18T18:28:15.409Z,11.60
2018-02-18T18:30:44.017Z,13.63
2018-02-18T18:33:13.189Z,10.50
2018-02-18T18:35:41.581Z,11.37
2018-02-18T18:38:10.409Z,11.47
2018-02-18T18:40:38.858Z,13.10
2018-02-18T18:43:07.390Z,13.77
2018-02-18T18:45:35.782Z,11.93
2018-02-18T18:48:04.176Z,13.27
2018-02-18T18:50:32.578Z,11.60
2018-02-18T18:53:01.736Z,12.10
2018-02-18T18:55:30.146Z,12.30
2018-02-18T18:57:59.292Z,11.60
2018-02-18T19:00:27.674Z,11.60
2018-02-18T19:02:56.051Z,12.80
2018-02-18T19:05:24.446Z,13.10
2018-02-18T19:07:52.836Z,13.93
2018-02-18T19:10:21.212Z,12.90
2018-02-18T19:12:49.621Z,12.83
2018-02-18T19:15:18.790Z,14.43
2018-02-18T19:17:47.172Z,14.13
2018-02-18T19:20:15.543Z,12.40
2018-02-18T19:22:43.956Z,12.87
2018-02-18T19:25:13.098Z,13.07
2018-02-18T19:27:41.469Z,13.63
2018-02-18T19:30:09.853Z,11.93
2018-02-18T19:32:38.232Z,12.97
2018-02-18T19:35:06.600Z,15.33
2018-02-18T19:37:34.986Z,14.40
2018-02-18T19:40:03.416Z,14.30
2018-02-18T19:42:32.576Z,14.87
2018-02-18T19:45:00.963Z,14.90
2018-02-18T19:47:29.357Z,16.13
2018-02-18T19:49:57.728Z,14.47
2018-02-18T19:52:26.313Z,15.10
2018-02-18T19:54:54.688Z,15.70
2018-02-18T19:57:23.067Z,13.73
2018-02-18T19:59:51.456Z,16.83
2018-02-18T20:02:19.849Z,14.77
2018-02-18T20:04:49.007Z,14.07
2018-02-18T20:07:17.662Z,14.75
2018-02-18T20:09:47.116Z,13.20
2018-02-18T20:12:16.364Z,14.30
2018-02-18T20:14:45.776Z,14.32
2018-02-18T20:17:14.181Z,13.90
2018-02-18T20:19:42.650Z,15.07
2018-02-18T20:22:12.301Z,14.07
2018-02-18T20:24:41.175Z,13.02
2018-02-18T20:27:09.871Z,15.23
2018-02-18T20:29:38.580Z,14.65
2018-02-18T20:32:08.009Z,13.20
2018-02-18T20:34:36.669Z,14.07
2018-02-18T20:37:04.772Z,12.80
2018-02-18T20:39:33.421Z,12.40
2018-02-18T20:42:02.092Z,11.32
2018-02-18T20:44:30.756Z,11.93
2018-02-18T20:46:59.428Z,13.02
2018-02-18T20:49:28.092Z,12.23
2018-02-18T20:51:56.740Z,13.05
2018-02-18T20:54:25.419Z,12.37
2018-02-18T20:56:53.834Z,10.10
2018-02-18T20:59:23.415Z,14.50
2018-02-18T21:01:52.076Z,12.70
2018-02-18T21:04:20.736Z,13.48
2018-02-18T21:06:49.416Z,13.85
2018-02-18T21:09:18.068Z,14.25
2018-02-18T21:11:47.499Z,13.55
2018-02-18T21:14:16.207Z,12.35
2018-02-18T21:16:44.851Z,12.55
2018-02-18T21:19:13.529Z,12.70
2018-02-18T21:21:42.949Z,11.98
2018-02-18T21:24:11.598Z,13.38
2018-02-18T21:26:40.256Z,12.57
2018-02-18T21:29:08.905Z,10.98
2018-02-18T21:31:37.575Z,11.25
2018-02-18T21:34:06.990Z,11.20
2018-02-18T21:36:35.647Z,11.18
2018-02-18T21:39:04.415Z,11.90
2018-02-18T21:41:33.060Z,12.65
2018-02-18T21:44:01.744Z,12.52
2018-02-18T21:46:30.392Z,13.13
2018-02-18T21:49:01.420Z,12.27
2018-02-18T21:51:30.129Z,12.15
2018-02-18T21:53:59.562Z,11.23
2018-02-18T21:56:28.247Z,14.45
2018-02-18T21:58:56.930Z,13.40
2018-02-18T22:01:25.599Z,14.07
2018-02-18T22:03:54.360Z,12.73
2018-02-18T22:06:22.998Z,12.70
2018-02-18T22:08:51.676Z,13.20
2018-02-18T22:11:20.363Z,13.23
2018-02-18T22:13:49.024Z,13.15
2018-02-18T22:16:17.679Z,13.55
2018-02-18T22:18:46.324Z,15.00
2018-02-18T22:21:15.051Z,15.05
2018-02-18T22:23:44.585Z,12.52
2018-02-18T22:26:13.252Z,15.77
2018-02-18T22:28:42.666Z,12.23
2018-02-18T22:31:11.316Z,16.65
2018-02-18T22:33:39.989Z,14.07
2018-02-18T22:36:08.644Z,15.38
2018-02-18T22:38:37.309Z,13.88
2018-02-18T22:41:05.637Z,13.43
2018-02-18T22:43:34.279Z,13.93
2018-02-18T22:46:03.045Z,13.00
2018-02-18T22:48:32.492Z,15.15
2018-02-18T22:51:01.148Z,13.68
2018-02-18T22:53:29.800Z,13.30
2018-02-18T22:55:58.448Z,12.70
2018-02-18T22:58:27.113Z,13.20
2018-02-18T23:00:55.756Z,13.00
2018-02-18T23:03:25.196Z,12.70
2018-02-18T23:05:53.833Z,15.30
2018-02-18T23:08:22.668Z,15.05
2018-02-18T23:10:51.320Z,15.85
2018-02-18T23:13:20.541Z,17.30
2018-02-18T23:15:49.219Z,18.58
2018-02-18T23:18:18.631Z,19.00
2018-02-18T23:20:58.391Z,19.27
2018-02-18T23:23:27.037Z,21.02
2018-02-18T23:25:56.457Z,16.52
2018-02-18T23:28:25.222Z,19.20
2018-02-18T23:30:54.632Z,20.35
2018-02-18T23:33:24.065Z,18.45
2018-02-18T23:35:52.720Z,17.62
2018-02-18T23:38:22.139Z,18.48
2018-02-18T23:40:50.826Z,18.40
2018-02-18T23:43:20.010Z,16.92
2018-02-18T23:45:49.462Z,17.50
2018-02-18T23:48:18.108Z,18.45
2018-02-18T23:50:47.524Z,15.68
2018-02-18T23:53:16.185Z,17.00
2018-02-18T23:55:45.596Z,15.18
2018-02-18T23:58:14.273Z,15.82
